Time;durP1;ratioP1;P1;durP2;ratioP2;P2;SDS_P1;SDS_P2;PMS_P1;PMS_P2;Temp;Humidity;BMP_temperature;BMP_pressure;BME280_temperature;BME280_humidity;BME280_pressure;Samples;Min_cycle;Max_cycle;Signal;HPM_P1;HPM_P2
2022/03/19 00:02:20;;;;;;;19.33;4.80;;;1.90;99.90;;;;;;4975022;28;20544;-84
2022/03/19 00:04:46;;;;;;;13.65;4.10;;;1.70;99.90;;;;;;4985287;28;20124;-84
2022/03/19 00:07:11;;;;;;;30.33;5.38;;;1.60;99.90;;;;;;4994392;28;20050;-84
2022/03/19 00:09:39;;;;;;;37.33;6.78;;;1.80;99.90;;;;;;4994669;28;20471;-84
2022/03/19 00:12:05;;;;;;;24.00;5.35;;;1.70;99.90;;;;;;4994721;28;20096;-84
2022/03/19 00:14:31;;;;;;;18.73;4.07;;;1.60;99.90;;;;;;4994459;28;20043;-84
2022/03/19 00:16:57;;;;;;;14.07;3.00;;;1.60;99.90;;;;;;4994428;28;20038;-84
2022/03/19 00:19:23;;;;;;;27.52;5.82;;;1.80;99.90;;;;;;4994261;28;20418;-84
2022/03/19 00:21:49;;;;;;;20.52;3.85;;;1.70;99.90;;;;;;4994168;28;20053;-84
2022/03/19 00:24:15;;;;;;;18.70;3.88;;;1.80;99.90;;;;;;4994605;28;20046;-84
2022/03/19 00:26:41;;;;;;;21.30;4.43;;;1.80;99.90;;;;;;4994867;28;20043;-84
2022/03/19 00:29:07;;;;;;;13.32;3.20;;;1.90;99.90;;;;;;4994673;28;20121;-84
2022/03/19 00:31:33;;;;;;;13.45;3.90;;;1.90;99.90;;;;;;4994622;28;20046;-84
2022/03/19 00:33:59;;;;;;;24.83;4.10;;;1.90;99.90;;;;;;4994465;28;20497;-84
2022/03/19 00:36:25;;;;;;;20.55;4.32;;;1.90;99.90;;;;;;4994230;28;20096;-84
2022/03/19 00:38:51;;;;;;;23.27;4.15;;;1.80;99.90;;;;;;4994136;28;20073;-84
2022/03/19 00:41:17;;;;;;;24.75;3.85;;;1.70;99.90;;;;;;4994101;28;20081;-84
2022/03/19 00:43:43;;;;;;;22.13;5.18;;;1.80;99.90;;;;;;4993905;28;20452;-84
2022/03/19 00:46:09;;;;;;;17.98;3.25;;;1.80;99.90;;;;;;4994209;28;20050;-84
2022/03/19 00:48:34;;;;;;;20.70;4.07;;;1.70;99.90;;;;;;4960286;28;20096;-84
2022/03/19 00:51:00;;;;;;;20.73;3.35;;;1.70;99.90;;;;;;4994003;28;20404;-85
2022/03/19 00:53:25;;;;;;;25.90;5.05;;;1.70;99.90;;;;;;4994268;28;20053;-84
2022/03/19 00:55:51;;;;;;;20.40;3.50;;;1.60;99.90;;;;;;4993961;28;20038;-84
2022/03/19 00:58:17;;;;;;;26.52;5.03;;;1.60;99.90;;;;;;4976847;28;20444;-85
2022/03/19 01:00:42;;;;;;;16.85;4.22;;;1.40;99.90;;;;;;4994072;28;20078;-85
2022/03/19 01:03:08;;;;;;;27.02;4.28;;;1.40;99.90;;;;;;4996110;28;20044;-85
2022/03/19 01:05:34;;;;;;;13.27;4.38;;;1.50;99.90;;;;;;4997752;28;20117;-85
2022/03/19 01:07:59;;;;;;;27.58;4.32;;;1.40;99.90;;;;;;4997959;28;20561;-84
2022/03/19 01:10:29;;;;;;;19.10;3.88;;;1.60;99.90;;;;;;4997682;28;20055;-85
2022/03/19 01:12:57;;;;;;;30.50;4.70;;;1.50;99.90;;;;;;5015040;28;20034;-84
2022/03/19 01:15:23;;;;;;;24.42;4.65;;;1.40;99.90;;;;;;5021438;28;20046;-84
2022/03/19 01:17:49;;;;;;;26.30;4.40;;;1.40;99.90;;;;;;5019228;28;20046;-84
2022/03/19 01:20:16;;;;;;;18.77;4.45;;;1.40;99.90;;;;;;5002265;28;20052;-84
2022/03/19 01:22:43;;;;;;;19.60;3.78;;;1.50;99.90;;;;;;4983708;28;20122;-85
2022/03/19 01:25:10;;;;;;;21.52;4.88;;;1.60;99.90;;;;;;4998630;28;20042;-84
2022/03/19 01:27:37;;;;;;;27.98;4.63;;;1.70;99.90;;;;;;4998481;28;20078;-85
2022/03/19 01:30:06;;;;;;;28.50;4.78;;;1.70;99.90;;;;;;4998526;28;20041;-85
2022/03/19 01:32:33;;;;;;;24.55;5.55;;;1.80;99.90;;;;;;4997848;28;20139;-85
2022/03/19 01:34:58;;;;;;;18.67;3.70;;;1.80;99.90;;;;;;4997942;28;20089;-84
2022/03/19 01:37:25;;;;;;;21.63;4.50;;;1.80;99.90;;;;;;4997790;28;20046;-85
2022/03/19 01:39:53;;;;;;;13.48;3.78;;;1.90;99.90;;;;;;4997501;28;20045;-84
2022/03/19 01:42:27;;;;;;;17.75;4.15;;;1.80;99.90;;;;;;4997814;28;20065;-84
2022/03/19 01:44:54;;;;;;;23.67;5.15;;;1.60;99.90;;;;;;4997252;28;20050;-85
2022/03/19 01:47:20;;;;;;;32.47;5.38;;;1.60;99.90;;;;;;4997061;28;20066;-84
2022/03/19 01:49:46;;;;;;;19.88;3.47;;;1.50;99.90;;;;;;4995893;28;20049;-85
2022/03/19 01:52:12;;;;;;;19.77;4.70;;;1.60;99.90;;;;;;4997474;28;20042;-84
2022/03/19 01:54:40;;;;;;;23.55;3.50;;;1.50;99.90;;;;;;4997250;28;20045;-84
2022/03/19 01:57:07;;;;;;;18.73;5.25;;;1.50;99.90;;;;;;4979628;28;20050;-84
2022/03/19 01:59:36;;;;;;;26.15;6.05;;;1.50;99.90;;;;;;4996823;28;20493;-85
2022/03/19 02:02:07;;;;;;;25.65;5.82;;;1.50;99.90;;;;;;4997426;28;20067;-84
2022/03/19 02:04:36;;;;;;;21.30;4.85;;;1.60;99.90;;;;;;4997081;28;20456;-85
2022/03/19 02:07:03;;;;;;;20.55;4.97;;;1.50;99.90;;;;;;4997002;28;20039;-84
2022/03/19 02:09:29;;;;;;;15.75;4.13;;;1.50;99.90;;;;;;4996810;28;20407;-84
2022/03/19 02:11:55;;;;;;;29.98;5.82;;;1.50;99.90;;;;;;4997582;28;20042;-84
2022/03/19 02:14:20;;;;;;;28.77;5.85;;;1.50;99.90;;;;;;4979268;28;20046;-85
2022/03/19 02:16:47;;;;;;;27.73;5.35;;;1.60;99.90;;;;;;4979400;28;20476;-84
2022/03/19 02:19:13;;;;;;;16.45;4.28;;;1.60;99.90;;;;;;4996839;28;20043;-84
2022/03/19 02:21:44;;;;;;;19.98;4.25;;;1.50;99.90;;;;;;4996419;28;20042;-84
2022/03/19 02:26:55;;;;;;;19.90;5.53;;;1.60;99.90;;;;;;4997053;28;20042;-84
2022/03/19 02:29:21;;;;;;;28.38;5.10;;;1.60;99.90;;;;;;4997096;28;20077;-84
2022/03/19 02:31:49;;;;;;;20.88;5.53;;;1.60;99.90;;;;;;4996566;28;20039;-84
2022/03/19 02:34:15;;;;;;;16.70;4.70;;;1.50;99.90;;;;;;4996691;28;20105;-85
2022/03/19 02:36:41;;;;;;;32.78;5.25;;;1.40;99.90;;;;;;4996910;28;20049;-84
2022/03/19 02:39:17;;;;;;;27.48;5.03;;;1.30;99.90;;;;;;4962854;28;20047;-84
2022/03/19 02:44:19;;;;;;;20.90;5.32;;;1.20;99.90;;;;;;5122001;22;20057;-78
2022/03/19 02:46:49;;;;;;;17.88;5.93;;;1.20;99.90;;;;;;5013625;28;20046;-78
2022/03/19 02:49:16;;;;;;;25.48;6.03;;;1.10;99.90;;;;;;5017048;28;20046;-78
2022/03/19 02:51:44;;;;;;;27.08;5.20;;;1.10;99.90;;;;;;5006073;28;20105;-78
2022/03/19 02:54:12;;;;;;;36.00;7.93;;;1.00;99.90;;;;;;4981698;28;20547;-79
2022/03/19 02:56:40;;;;;;;31.63;6.82;;;1.00;99.90;;;;;;5007985;28;20412;-79
2022/03/19 02:59:12;;;;;;;33.67;6.97;;;1.00;99.90;;;;;;5018099;28;20125;-79
2022/03/19 03:01:41;;;;;;;31.08;6.40;;;1.10;99.90;;;;;;5016911;28;20038;-79
2022/03/19 03:04:07;;;;;;;29.02;6.70;;;1.20;99.90;;;;;;5022687;28;20042;-78
2022/03/19 03:06:37;;;;;;;30.67;6.95;;;1.30;99.90;;;;;;5025170;28;20080;-79
2022/03/19 03:09:04;;;;;;;29.60;7.60;;;1.30;99.90;;;;;;5024836;28;20049;-79
2022/03/19 03:11:31;;;;;;;21.10;6.22;;;1.20;99.90;;;;;;5007390;28;20053;-79
2022/03/19 03:13:56;;;;;;;27.45;6.32;;;1.10;99.90;;;;;;5016214;28;20042;-78
2022/03/19 03:16:22;;;;;;;17.92;6.93;;;0.90;99.90;;;;;;5018731;28;20507;-79
2022/03/19 03:18:48;;;;;;;27.73;5.97;;;0.90;99.90;;;;;;4999013;28;20046;-79
2022/03/19 03:21:14;;;;;;;32.83;7.45;;;0.90;99.90;;;;;;5002482;28;20171;-78
2022/03/19 03:23:40;;;;;;;31.40;7.00;;;1.00;99.90;;;;;;5018002;28;20048;-79
2022/03/19 03:26:06;;;;;;;27.40;7.95;;;1.60;99.90;;;;;;5017411;28;20121;-79
2022/03/19 03:28:31;;;;;;;24.02;6.45;;;1.60;99.90;;;;;;5019990;28;20060;-80
2022/03/19 03:30:57;;;;;;;19.88;6.43;;;1.70;99.90;;;;;;5011001;28;20042;-80
2022/03/19 03:33:23;;;;;;;25.10;6.90;;;1.00;99.90;;;;;;5017748;28;20053;-80
2022/03/19 03:35:49;;;;;;;25.90;7.28;;;1.20;99.90;;;;;;5017992;28;20046;-80
2022/03/19 03:38:15;;;;;;;37.33;8.05;;;0.90;99.90;;;;;;5018322;28;20172;-80
2022/03/19 03:40:41;;;;;;;36.80;9.05;;;1.00;99.90;;;;;;5012324;28;20074;-80
2022/03/19 03:43:07;;;;;;;30.55;7.43;;;1.20;99.90;;;;;;4980859;28;20128;-80
2022/03/19 03:45:34;;;;;;;29.23;8.40;;;1.20;99.90;;;;;;4998457;28;20129;-80
2022/03/19 03:47:59;;;;;;;28.88;7.75;;;1.30;99.90;;;;;;4997233;28;20505;-80
2022/03/19 03:50:25;;;;;;;19.23;6.50;;;1.30;99.90;;;;;;5000418;28;20038;-80
2022/03/19 03:52:51;;;;;;;25.95;8.02;;;1.20;99.90;;;;;;5012945;28;20042;-80
2022/03/19 03:55:17;;;;;;;30.08;7.55;;;1.20;99.90;;;;;;5017860;28;20116;-80
2022/03/19 03:57:43;;;;;;;34.42;6.80;;;1.20;99.90;;;;;;5016902;28;20040;-80
2022/03/19 04:00:09;;;;;;;32.00;7.57;;;1.00;99.90;;;;;;5016384;28;20421;-80
2022/03/19 04:02:36;;;;;;;27.33;6.82;;;0.80;99.90;;;;;;5017141;28;20491;-80
2022/03/19 04:05:02;;;;;;;26.70;7.63;;;0.70;99.90;;;;;;5017754;28;20117;-79
2022/03/19 04:07:27;;;;;;;27.52;7.18;;;0.70;99.90;;;;;;5017319;28;20073;-80
2022/03/19 04:09:54;;;;;;;35.65;9.73;;;0.70;99.90;;;;;;5016507;28;20045;-80
2022/03/19 04:12:20;;;;;;;30.50;7.85;;;0.80;99.90;;;;;;5016144;28;20052;-80
2022/03/19 04:14:45;;;;;;;38.10;9.57;;;0.80;99.90;;;;;;5017722;28;20097;-80
2022/03/19 04:17:11;;;;;;;25.75;7.75;;;1.00;99.90;;;;;;4999930;28;20053;-80
2022/03/19 04:19:36;;;;;;;28.85;8.40;;;1.00;99.90;;;;;;5017121;28;20056;-80
2022/03/19 04:22:02;;;;;;;31.25;8.38;;;0.90;99.90;;;;;;5016784;28;20491;-80
2022/03/19 04:24:28;;;;;;;33.45;8.45;;;0.80;99.90;;;;;;5017289;28;20492;-79
2022/03/19 04:26:53;;;;;;;26.15;9.60;;;0.70;99.90;;;;;;5017698;28;20042;-80
2022/03/19 04:29:19;;;;;;;41.75;10.57;;;0.60;99.90;;;;;;5017135;28;20115;-80
2022/03/19 04:31:44;;;;;;;40.70;11.27;;;0.80;99.90;;;;;;5018344;28;20041;-79
2022/03/19 04:34:10;;;;;;;34.92;10.10;;;0.80;99.90;;;;;;5018446;28;20041;-79
2022/03/19 04:36:37;;;;;;;32.28;10.93;;;1.00;99.90;;;;;;5018274;28;20070;-80
2022/03/19 04:39:04;;;;;;;33.70;12.32;;;1.20;99.90;;;;;;5018425;28;20045;-79
2022/03/19 04:41:31;;;;;;;42.63;12.40;;;1.20;99.90;;;;;;5018471;28;20053;-80
2022/03/19 04:43:56;;;;;;;34.83;11.25;;;1.20;99.90;;;;;;5017480;28;20073;-79
2022/03/19 04:46:22;;;;;;;43.28;13.90;;;1.10;99.90;;;;;;5016876;28;20049;-79
2022/03/19 04:48:48;;;;;;;33.22;11.45;;;1.60;99.90;;;;;;5019451;28;20496;-79
2022/03/19 04:51:16;;;;;;;30.35;11.30;;;1.10;99.90;;;;;;5018901;28;20542;-80
2022/03/19 04:53:42;;;;;;;41.88;12.52;;;0.90;99.90;;;;;;5001463;28;20041;-80
2022/03/19 04:56:08;;;;;;;41.65;12.32;;;1.00;99.90;;;;;;5018678;28;20042;-80
2022/03/19 04:58:34;;;;;;;38.38;11.68;;;0.90;99.90;;;;;;5019112;28;20038;-79
2022/03/19 05:01:00;;;;;;;33.50;11.70;;;0.90;99.90;;;;;;5019308;28;20074;-79
2022/03/19 05:03:26;;;;;;;44.03;13.68;;;0.90;99.90;;;;;;5018311;28;20121;-80
2022/03/19 05:05:52;;;;;;;41.90;11.93;;;1.30;99.90;;;;;;5000780;28;20054;-80
2022/03/19 05:08:18;;;;;;;35.05;12.85;;;0.90;99.90;;;;;;5018785;28;20045;-79
2022/03/19 05:13:28;;;;;;;43.08;12.82;;;0.90;99.90;;;;;;5019765;28;20054;-80
2022/03/19 05:15:54;;;;;;;29.60;12.23;;;0.80;99.90;;;;;;5018761;28;20397;-80
2022/03/19 05:18:20;;;;;;;35.88;11.77;;;1.20;99.90;;;;;;5020322;28;20038;-79
2022/03/19 05:20:46;;;;;;;28.55;11.63;;;1.50;99.90;;;;;;5002853;28;20557;-80
2022/03/19 05:23:12;;;;;;;36.47;12.95;;;0.90;99.90;;;;;;5020193;28;20052;-80
2022/03/19 05:25:38;;;;;;;38.97;14.07;;;0.90;99.90;;;;;;5019996;28;20113;-80
2022/03/19 05:28:04;;;;;;;36.45;13.43;;;0.90;99.90;;;;;;5017862;28;20042;-79
2022/03/19 05:30:32;;;;;;;40.03;16.48;;;1.00;99.90;;;;;;5002367;28;20101;-79
2022/03/19 05:32:59;;;;;;;36.78;16.02;;;1.10;99.90;;;;;;5017728;28;20114;-79
2022/03/19 05:35:25;;;;;;;34.28;14.32;;;1.10;99.90;;;;;;5018723;28;20121;-79
2022/03/19 05:37:50;;;;;;;37.78;12.60;;;1.10;99.90;;;;;;5001293;28;20041;-80
2022/03/19 05:40:17;;;;;;;35.55;13.80;;;1.10;99.90;;;;;;5017054;28;20100;-79
2022/03/19 05:42:43;;;;;;;41.97;13.77;;;1.60;99.90;;;;;;5018435;28;20058;-80
2022/03/19 05:45:15;;;;;;;37.35;14.05;;;1.00;99.90;;;;;;5018711;28;20054;-80
2022/03/19 05:47:42;;;;;;;43.58;14.20;;;0.90;99.90;;;;;;5018430;28;20495;-80
2022/03/19 05:50:08;;;;;;;37.30;13.52;;;0.80;99.90;;;;;;5022123;28;20042;-80
2022/03/19 05:52:34;;;;;;;35.65;12.63;;;0.80;99.90;;;;;;5021843;28;20088;-80
2022/03/19 05:54:59;;;;;;;36.60;14.43;;;0.90;99.90;;;;;;5021826;28;20046;-79
2022/03/19 05:57:25;;;;;;;35.28;12.65;;;0.80;99.90;;;;;;5021693;28;20045;-79
2022/03/19 05:59:50;;;;;;;40.85;15.57;;;0.80;99.90;;;;;;5022195;28;20042;-79
2022/03/19 06:02:16;;;;;;;34.83;12.93;;;0.80;99.90;;;;;;5022335;28;20034;-80
2022/03/19 06:04:41;;;;;;;44.40;14.95;;;1.30;99.90;;;;;;5021486;28;20080;-80
2022/03/19 06:07:07;;;;;;;35.67;11.90;;;0.80;99.90;;;;;;5022884;28;20034;-80
2022/03/19 06:09:32;;;;;;;36.17;14.32;;;1.10;99.90;;;;;;5022048;28;20046;-80
2022/03/19 06:11:58;;;;;;;36.63;13.38;;;0.90;99.90;;;;;;5023182;28;20073;-79
2022/03/19 06:14:24;;;;;;;41.53;14.98;;;1.00;99.90;;;;;;5023376;28;20512;-79
2022/03/19 06:16:49;;;;;;;41.70;13.93;;;1.00;99.90;;;;;;5022527;28;20045;-79
2022/03/19 06:19:16;;;;;;;38.65;14.95;;;1.10;99.90;;;;;;5021975;28;20484;-79
2022/03/19 06:21:42;;;;;;;44.40;14.40;;;1.20;99.90;;;;;;5023035;28;20046;-79
2022/03/19 06:24:09;;;;;;;51.42;16.42;;;1.40;99.90;;;;;;5022217;28;20053;-80
2022/03/19 06:26:36;;;;;;;51.42;15.43;;;1.40;99.90;;;;;;5022491;28;20100;-79
2022/03/19 06:29:03;;;;;;;40.40;16.23;;;1.40;99.90;;;;;;5022773;28;20500;-79
2022/03/19 06:31:29;;;;;;;41.45;14.98;;;1.70;99.90;;;;;;5022076;28;20097;-80
2022/03/19 06:33:54;;;;;;;35.92;15.10;;;1.90;99.90;;;;;;5022208;28;20077;-79
2022/03/19 06:39:05;;;;;;;38.67;14.23;;;1.80;99.90;;;;;;5023422;28;20059;-79
2022/03/19 06:41:31;;;;;;;48.42;17.67;;;1.90;99.90;;;;;;5022920;28;20038;-80
2022/03/19 06:43:57;;;;;;;31.33;14.23;;;2.10;99.90;;;;;;5024757;28;20046;-80
2022/03/19 06:46:23;;;;;;;36.00;13.95;;;2.20;99.90;;;;;;5023219;28;20072;-79
2022/03/19 06:48:50;;;;;;;37.47;14.10;;;2.40;99.90;;;;;;5025304;28;20527;-79
2022/03/19 06:51:17;;;;;;;32.05;12.25;;;2.90;99.90;;;;;;5025986;28;20113;-79
2022/03/19 06:53:43;;;;;;;29.70;12.55;;;2.60;99.90;;;;;;5024626;28;20099;-80
2022/03/19 06:56:09;;;;;;;41.35;12.02;;;2.70;99.90;;;;;;5023612;28;20117;-79
2022/03/19 06:58:35;;;;;;;25.27;11.35;;;2.80;99.90;;;;;;5024361;28;20053;-80
2022/03/19 07:01:01;;;;;;;25.10;9.63;;;3.10;99.90;;;;;;5022880;28;20065;-80
2022/03/19 07:03:27;;;;;;;27.13;9.77;;;2.90;99.90;;;;;;5021779;28;20037;-80
2022/03/19 07:05:53;;;;;;;26.00;10.05;;;3.10;99.90;;;;;;5020745;28;20050;-80
2022/03/19 07:08:18;;;;;;;19.33;7.88;;;3.20;99.90;;;;;;5020094;28;20038;-80
2022/03/19 07:10:44;;;;;;;28.38;9.25;;;3.40;99.90;;;;;;5020010;28;20610;-79
2022/03/19 07:13:09;;;;;;;23.23;7.35;;;3.80;99.90;;;;;;5019162;28;20046;-80
2022/03/19 07:15:36;;;;;;;15.40;6.20;;;3.70;99.90;;;;;;5019157;28;20041;-79
2022/03/19 07:18:02;;;;;;;21.42;9.43;;;3.90;99.90;;;;;;5017695;28;20050;-80
2022/03/19 07:20:29;;;;;;;16.27;6.45;;;4.00;99.90;;;;;;5019626;28;20542;-80
2022/03/19 07:23:01;;;;;;;26.10;6.95;;;4.20;99.90;;;;;;5019852;28;20053;-80
2022/03/19 07:25:32;;;;;;;23.75;7.65;;;4.30;99.90;;;;;;5020767;28;20049;-80
2022/03/19 07:28:00;;;;;;;20.52;6.63;;;4.40;99.90;;;;;;5021130;28;20046;-80
2022/03/19 07:30:26;;;;;;;18.13;5.68;;;4.40;99.90;;;;;;5022040;28;20041;-80
2022/03/19 07:32:52;;;;;;;17.02;6.03;;;4.60;99.90;;;;;;5020657;28;20351;-80
2022/03/19 07:35:18;;;;;;;16.20;6.15;;;4.60;99.90;;;;;;5020028;28;20050;-80
2022/03/19 07:37:44;;;;;;;24.05;7.07;;;4.60;99.90;;;;;;5020483;28;20065;-80
2022/03/19 07:40:13;;;;;;;17.17;5.82;;;4.70;99.90;;;;;;5021514;28;20065;-80
2022/03/19 07:42:39;;;;;;;14.93;6.20;;;4.80;99.90;;;;;;5021942;28;20038;-80
2022/03/19 07:45:08;;;;;;;17.08;5.78;;;4.90;99.90;;;;;;5022956;28;20041;-81
2022/03/19 07:47:35;;;;;;;17.05;5.57;;;5.10;99.90;;;;;;5020183;28;20076;-80
2022/03/19 07:50:02;;;;;;;24.27;6.32;;;5.20;99.90;;;;;;5017966;28;20054;-80
2022/03/19 07:52:27;;;;;;;20.45;5.95;;;5.40;99.90;;;;;;5018090;28;20058;-81
2022/03/19 07:54:56;;;;;;;19.30;5.00;;;5.40;99.90;;;;;;5016353;28;20038;-81
2022/03/19 07:57:23;;;;;;;14.77;5.05;;;5.50;99.90;;;;;;5018011;28;20073;-81
2022/03/19 07:59:49;;;;;;;19.92;5.82;;;5.60;99.90;;;;;;5017382;28;20030;-81
2022/03/19 08:02:15;;;;;;;15.98;5.07;;;5.70;99.90;;;;;;5018726;28;20049;-80
2022/03/19 08:04:40;;;;;;;22.52;7.00;;;5.90;99.90;;;;;;5002025;28;20044;-80
2022/03/19 08:07:07;;;;;;;14.10;3.97;;;6.00;99.90;;;;;;5015777;28;20068;-80
2022/03/19 08:09:32;;;;;;;13.88;5.03;;;6.10;99.90;;;;;;5016834;28;20465;-81
2022/03/19 08:11:59;;;;;;;22.70;5.82;;;6.30;99.90;;;;;;5017128;28;20105;-81
2022/03/19 08:14:27;;;;;;;14.68;5.40;;;6.40;99.90;;;;;;5017717;28;20420;-80
2022/03/19 08:16:53;;;;;;;16.58;4.72;;;6.60;99.90;;;;;;5016520;28;20428;-81
2022/03/19 08:19:19;;;;;;;19.33;5.22;;;6.70;99.90;;;;;;5020685;28;20141;-81
2022/03/19 08:21:45;;;;;;;15.50;4.35;;;6.60;99.90;;;;;;5018181;28;20041;-81
2022/03/19 08:24:11;;;;;;;15.38;5.57;;;6.70;99.90;;;;;;5015996;28;20072;-80
2022/03/19 08:26:38;;;;;;;23.05;5.18;;;6.80;99.90;;;;;;5018168;28;20076;-80
2022/03/19 08:29:04;;;;;;;11.35;3.78;;;6.90;99.90;;;;;;5002864;28;20408;-81
2022/03/19 08:31:31;;;;;;;14.90;4.35;;;7.00;99.90;;;;;;5003212;28;20050;-81
2022/03/19 08:33:56;;;;;;;16.38;4.28;;;7.00;99.90;;;;;;5020481;28;20046;-80
2022/03/19 08:36:23;;;;;;;24.27;4.60;;;7.10;99.90;;;;;;5019742;28;20052;-80
2022/03/19 08:41:33;;;;;;;24.35;6.13;;;7.30;99.90;;;;;;5019673;28;20057;-80
2022/03/19 08:43:59;;;;;;;20.05;4.15;;;7.40;99.90;;;;;;5020399;28;20492;-81
2022/03/19 08:46:25;;;;;;;17.52;3.88;;;7.50;99.90;;;;;;5023516;28;20050;-82
2022/03/19 08:48:51;;;;;;;17.40;4.22;;;7.60;99.90;;;;;;5022176;28;20061;-81
2022/03/19 08:54:03;;;;;;;15.82;4.72;;;7.70;99.90;;;;;;5021340;28;20050;-78
2022/03/19 08:56:29;;;;;;;12.57;3.58;;;7.80;99.90;;;;;;5020046;28;20420;-78
2022/03/19 08:58:55;;;;;;;13.75;3.70;;;7.90;99.90;;;;;;5023426;28;20360;-79
2022/03/19 09:01:20;;;;;;;13.48;4.45;;;7.90;99.90;;;;;;5023087;28;20053;-78
2022/03/19 09:03:46;;;;;;;16.75;4.90;;;8.00;99.90;;;;;;5005071;28;20057;-78
2022/03/19 09:06:14;;;;;;;13.60;4.15;;;8.00;99.90;;;;;;5021425;28;20404;-79
2022/03/19 09:08:41;;;;;;;17.90;4.18;;;8.10;99.90;;;;;;5021933;28;20124;-79
2022/03/19 09:11:07;;;;;;;16.75;4.70;;;8.10;99.90;;;;;;5021711;28;20096;-81
2022/03/19 09:13:33;;;;;;;18.58;5.25;;;8.20;99.90;;;;;;5022500;28;20049;-81
2022/03/19 09:15:59;;;;;;;20.15;4.00;;;8.50;99.90;;;;;;5022280;28;20093;-81
2022/03/19 09:18:26;;;;;;;12.13;3.97;;;8.90;99.90;;;;;;5019340;28;20081;-81
2022/03/19 09:20:52;;;;;;;14.32;4.03;;;9.40;99.90;;;;;;5019288;28;20084;-79
2022/03/19 09:23:17;;;;;;;20.73;3.67;;;9.70;99.90;;;;;;5002176;28;20046;-79
2022/03/19 09:25:43;;;;;;;11.35;3.63;;;10.00;99.90;;;;;;5020359;28;20058;-79
2022/03/19 09:28:09;;;;;;;20.50;3.88;;;10.20;99.90;;;;;;5020721;28;20042;-79
2022/03/19 09:30:35;;;;;;;13.35;4.25;;;10.00;99.90;;;;;;5022081;28;20045;-79
2022/03/19 09:33:00;;;;;;;11.50;3.47;;;10.60;99.90;;;;;;5022301;28;20037;-80
2022/03/19 09:35:26;;;;;;;17.15;3.75;;;10.70;99.90;;;;;;5022202;28;20053;-79
2022/03/19 09:37:52;;;;;;;13.13;3.22;;;10.80;99.90;;;;;;5004755;28;20113;-79
2022/03/19 09:40:19;;;;;;;17.65;3.88;;;10.80;99.90;;;;;;5020587;28;20041;-79
2022/03/19 09:42:53;;;;;;;13.05;4.07;;;10.50;99.10;;;;;;5022038;28;20096;-79
2022/03/19 09:45:20;;;;;;;15.15;3.80;;;10.70;98.30;;;;;;5020919;28;20054;-79
2022/03/19 09:47:46;;;;;;;11.23;2.75;;;10.80;99.90;;;;;;5019844;28;20068;-79
2022/03/19 09:50:12;;;;;;;13.05;3.10;;;10.60;90.70;;;;;;5021790;28;20054;-79
2022/03/19 09:52:41;;;;;;;11.73;3.10;;;10.80;99.90;;;;;;5006770;28;20547;-82
2022/03/19 09:55:12;;;;;;;12.25;3.35;;;11.00;98.70;;;;;;5022889;28;20053;-80
2022/03/19 09:57:38;;;;;;;13.25;2.80;;;11.00;99.90;;;;;;5006083;28;20041;-79
2022/03/19 10:00:04;;;;;;;12.18;2.70;;;11.00;99.90;;;;;;5020103;28;20044;-79
2022/03/19 10:02:29;;;;;;;11.52;2.95;;;11.10;99.90;;;;;;5021027;28;20049;-79
2022/03/19 10:04:57;;;;;;;9.32;2.40;;;11.10;94.50;;;;;;5021986;28;20057;-79
2022/03/19 10:10:09;;;;;;;10.35;2.78;;;10.80;90.50;;;;;;5023789;28;20050;-79
2022/03/19 10:12:36;;;;;;;11.80;3.63;;;10.90;82.20;;;;;;5005673;28;20064;-79
2022/03/19 10:15:09;;;;;;;7.07;2.50;;;10.60;83.80;;;;;;5019478;28;20054;-80
2022/03/19 10:17:36;;;;;;;10.40;3.00;;;10.70;87.30;;;;;;5021381;28;20046;-80
2022/03/19 10:20:05;;;;;;;13.32;2.83;;;10.90;98.70;;;;;;5020147;28;20066;-80
2022/03/19 10:22:31;;;;;;;10.20;3.88;;;11.10;93.30;;;;;;5025537;28;20065;-80
2022/03/19 10:25:07;;;;;;;15.80;4.22;;;11.20;89.60;;;;;;5023886;28;20038;-80
2022/03/19 10:27:34;;;;;;;;;;;11.40;91.30;;;;;;5024099;28;20057;-80
2022/03/19 10:30:01;;;;;;;;;;;11.40;87.30;;;;;;5020989;28;19977;-80
2022/03/19 10:32:27;;;;;;;13.32;3.03;;;11.50;86.60;;;;;;5004554;28;20023;-80
2022/03/19 10:34:54;;;;;;;12.25;3.20;;;11.60;88.50;;;;;;5004492;28;20046;-80
2022/03/19 10:37:38;;;;;;;14.90;3.30;;;11.70;80.20;;;;;;5002422;28;20082;-80
2022/03/19 10:40:05;;;;;;;10.10;2.53;;;11.90;88.70;;;;;;5004418;28;20050;-80
2022/03/19 10:42:41;;;;;;;8.43;2.65;;;11.90;69.00;;;;;;5020716;28;20117;-81
2022/03/19 10:45:12;;;;;;;7.85;2.15;;;11.90;71.50;;;;;;5001994;28;20125;-80
2022/03/19 10:47:42;;;;;;;12.93;3.05;;;11.80;61.50;;;;;;5002319;28;20041;-82
2022/03/19 10:50:18;;;;;;;8.32;2.22;;;11.90;64.70;;;;;;5021518;28;20370;-80
2022/03/19 10:52:46;;;;;;;12.20;2.33;;;12.40;56.10;;;;;;5021161;28;20050;-82
2022/03/19 10:55:12;;;;;;;9.43;2.40;;;11.80;55.20;;;;;;5019883;28;20041;-81
2022/03/19 10:57:38;;;;;;;9.65;3.55;;;12.00;69.40;;;;;;5021725;28;20072;-80
2022/03/19 11:00:04;;;;;;;8.23;2.20;;;12.30;65.90;;;;;;5021762;28;20100;-80
2022/03/19 11:02:31;;;;;;;14.98;2.92;;;12.40;60.10;;;;;;5030145;28;20137;-82
2022/03/19 11:04:58;;;;;;;8.95;2.25;;;12.50;59.20;;;;;;5029399;28;20081;-81
2022/03/19 11:07:27;;;;;;;10.55;2.58;;;12.50;56.80;;;;;;5025706;28;20046;-80
2022/03/19 11:09:55;;;;;;;7.30;2.65;;;12.40;59.50;;;;;;5025045;28;20366;-80
2022/03/19 11:12:26;;;;;;;5.28;1.73;;;12.30;57.40;;;;;;5006223;28;20049;-80
2022/03/19 11:14:53;;;;;;;7.63;1.55;;;12.60;60.20;;;;;;5017572;28;20153;-80
2022/03/19 11:17:36;;;;;;;10.18;2.53;;;12.70;50.40;;;;;;5016435;28;20455;-81
2022/03/19 11:20:11;;;;;;;9.60;2.78;;;12.70;53.10;;;;;;5018468;28;20057;-81
2022/03/19 11:22:46;;;;;;;4.00;1.48;;;12.70;63.10;;;;;;5016994;28;20053;-80
2022/03/19 11:25:27;;;;;;;5.57;1.42;;;12.70;47.70;;;;;;5018650;28;20053;-81
2022/03/19 11:28:08;;;;;;;6.03;2.58;;;12.70;48.10;;;;;;5020458;28;20045;-81
2022/03/19 11:30:40;;;;;;;5.32;1.65;;;12.70;48.80;;;;;;5023639;28;20081;-80
2022/03/19 11:33:09;;;;;;;6.35;1.50;;;12.80;43.60;;;;;;5024719;28;20073;-81
2022/03/19 11:35:40;;;;;;;7.95;2.05;;;12.70;38.60;;;;;;5004240;28;20049;-80
2022/03/19 11:38:11;;;;;;;8.13;2.03;;;12.90;45.10;;;;;;5021603;28;20046;-80
2022/03/19 11:40:42;;;;;;;5.63;1.45;;;13.00;43.00;;;;;;5026623;28;20053;-81
2022/03/19 11:43:09;;;;;;;5.03;1.13;;;12.70;36.90;;;;;;5011543;28;20054;-80
2022/03/19 11:45:56;;;;;;;7.85;1.25;;;12.80;39.80;;;;;;5027962;28;20049;-81
2022/03/19 11:48:34;;;;;;;7.53;1.77;;;12.90;37.70;;;;;;5027124;28;20046;-80
2022/03/19 11:51:25;;;;;;;6.28;1.63;;;12.80;34.00;;;;;;5025171;28;20054;-81
2022/03/19 11:54:11;;;;;;;4.95;1.50;;;12.80;38.90;;;;;;5024127;28;20487;-81
2022/03/19 11:56:42;;;;;;;5.65;1.60;;;13.10;40.20;;;;;;5024256;28;20042;-81
2022/03/19 11:59:17;;;;;;;12.50;2.55;;;13.30;47.40;;;;;;5023171;28;20096;-81
2022/03/19 12:01:48;;;;;;;5.65;1.65;;;13.50;47.50;;;;;;5002004;28;20064;-81
2022/03/19 12:04:15;;;;;;;6.07;1.23;;;13.50;47.90;;;;;;5021926;28;20046;-84
2022/03/19 12:06:58;;;;;;;6.00;1.30;;;13.50;42.30;;;;;;5028129;28;20038;-81
2022/03/19 12:09:40;;;;;;;6.40;1.20;;;13.20;34.80;;;;;;5006190;28;20516;-80
2022/03/19 12:12:07;;;;;;;3.45;1.38;;;13.20;36.00;;;;;;5020684;28;20079;-81
2022/03/19 12:14:34;;;;;;;2.70;0.70;;;13.60;34.10;;;;;;5024622;28;20481;-80
2022/03/19 12:17:27;;;;;;;4.90;1.08;;;13.30;33.60;;;;;;5020768;28;20065;-80
2022/03/19 12:19:59;;;;;;;4.45;1.08;;;13.30;28.30;;;;;;5023329;28;20050;-80
2022/03/19 12:22:29;;;;;;;5.05;1.25;;;13.30;30.30;;;;;;5022535;28;20046;-80
2022/03/19 12:25:18;;;;;;;3.88;1.30;;;13.10;31.00;;;;;;5021408;28;20049;-80
2022/03/19 12:27:52;;;;;;;5.07;1.73;;;13.30;36.10;;;;;;5021921;28;20042;-81
2022/03/19 12:30:18;;;;;;;4.63;0.90;;;13.40;39.40;;;;;;5023488;28;20147;-80
2022/03/19 12:32:55;;;;;;;3.67;1.13;;;13.60;41.40;;;;;;5020841;28;20042;-80
2022/03/19 12:35:41;;;;;;;3.33;1.02;;;13.70;34.40;;;;;;5023033;28;20056;-81
2022/03/19 12:38:06;;;;;;;8.77;1.27;;;13.70;36.60;;;;;;5024956;28;20105;-80
2022/03/19 12:43:19;;;;;;;4.73;1.17;;;13.60;29.60;;;;;;5023099;28;20072;-80
2022/03/19 12:45:47;;;;;;;4.90;0.80;;;13.40;26.70;;;;;;5005413;28;20285;-80
2022/03/19 12:48:16;;;;;;;5.10;1.33;;;13.30;26.50;;;;;;5021574;28;20037;-79
2022/03/19 12:50:49;;;;;;;5.80;1.30;;;13.50;31.80;;;;;;5024194;28;20076;-80
2022/03/19 12:53:39;;;;;;;6.72;2.58;;;13.50;33.10;;;;;;5006949;28;20117;-80
2022/03/19 12:56:15;;;;;;;4.68;1.27;;;13.50;34.00;;;;;;5020718;28;20042;-81
2022/03/19 12:58:45;;;;;;;6.32;1.35;;;13.50;30.80;;;;;;5025558;28;20045;-80
2022/03/19 13:01:17;;;;;;;7.80;1.33;;;13.40;32.40;;;;;;5029853;28;20471;-81
2022/03/19 13:03:43;;;;;;;3.50;0.85;;;13.50;34.10;;;;;;5029072;28;20088;-81
2022/03/19 13:06:09;;;;;;;4.70;1.70;;;13.50;35.50;;;;;;5011379;28;20042;-81
2022/03/19 13:08:49;;;;;;;3.53;1.33;;;13.50;35.30;;;;;;5010524;28;20034;-81
2022/03/19 13:11:17;;;;;;;6.80;1.23;;;13.70;32.80;;;;;;5028299;28;20092;-82